createdAt,value
2022-07-27T00:03:01.448Z,45.28
2022-07-27T00:06:04.947Z,45.30
2022-07-27T00:09:08.495Z,45.85
2022-07-27T00:12:12.186Z,46.46
2022-07-27T00:15:17.921Z,46.21
2022-07-27T00:18:22.919Z,46.54
2022-07-27T00:21:26.867Z,46.71
2022-07-27T00:24:30.281Z,47.82
2022-07-27T00:27:33.730Z,48.15
2022-07-27T00:30:37.031Z,47.56
2022-07-27T00:33:41.695Z,47.36
2022-07-27T00:36:45.007Z,46.70
2022-07-27T00:39:51.357Z,46.85
2022-07-27T00:46:25.219Z,46.93
2022-07-27T00:49:30.036Z,46.43
2022-07-27T00:52:33.570Z,46.74
2022-07-27T00:55:37.249Z,47.00
2022-07-27T00:58:40.842Z,47.30
2022-07-27T01:01:44.951Z,47.20
2022-07-27T01:04:49.680Z,47.44
2022-07-27T01:07:57.443Z,48.12
2022-07-27T01:11:01.041Z,49.84
2022-07-27T01:14:05.642Z,49.05
2022-07-27T01:17:08.990Z,48.34
2022-07-27T01:20:13.895Z,48.42
2022-07-27T01:23:18.654Z,49.51
2022-07-27T01:26:22.043Z,49.92
2022-07-27T01:29:25.380Z,50.07
2022-07-27T01:32:28.667Z,50.07
2022-07-27T01:35:32.275Z,50.82
2022-07-27T01:38:36.973Z,51.06
2022-07-27T01:41:40.203Z,49.70
2022-07-27T01:44:43.435Z,48.98
2022-07-27T01:47:46.774Z,49.60
2022-07-27T01:50:51.262Z,48.63
2022-07-27T01:53:56.098Z,48.79
2022-07-27T01:56:59.319Z,49.76
2022-07-27T02:00:02.672Z,50.99
2022-07-27T02:03:15.449Z,50.26
2022-07-27T02:06:18.746Z,50.35
2022-07-27T02:09:25.892Z,50.54
2022-07-27T02:12:37.046Z,50.37
2022-07-27T02:15:42.971Z,50.36
2022-07-27T02:22:22.209Z,51.13
2022-07-27T02:25:26.795Z,50.65
2022-07-27T02:28:29.947Z,51.05
2022-07-27T02:31:33.267Z,50.65
2022-07-27T02:34:36.452Z,50.80
2022-07-27T02:37:39.718Z,49.69
2022-07-27T02:40:44.408Z,50.68
2022-07-27T02:43:47.732Z,50.23
2022-07-27T02:46:51.127Z,51.06
2022-07-27T02:49:54.499Z,51.45
2022-07-27T02:52:57.700Z,49.99
2022-07-27T02:56:02.394Z,51.38
2022-07-27T02:59:05.687Z,52.15
2022-07-27T03:02:08.965Z,51.16
2022-07-27T03:05:12.760Z,50.41
2022-07-27T03:08:16.059Z,51.15
2022-07-27T03:11:20.770Z,49.76
2022-07-27T03:14:24.086Z,50.68
2022-07-27T03:17:27.389Z,52.09
2022-07-27T03:20:30.648Z,51.85
2022-07-27T03:23:33.907Z,52.18
2022-07-27T03:26:38.575Z,51.77
2022-07-27T03:29:41.836Z,53.22
2022-07-27T03:32:45.075Z,53.92
2022-07-27T03:35:48.269Z,53.21
2022-07-27T03:38:51.561Z,53.28
2022-07-27T03:41:56.085Z,51.85
2022-07-27T03:44:59.439Z,51.01
2022-07-27T03:48:02.794Z,54.22
2022-07-27T03:51:06.057Z,53.65
2022-07-27T03:54:09.365Z,53.64
2022-07-27T03:57:14.109Z,53.33
2022-07-27T04:00:17.873Z,52.81
2022-07-27T04:03:21.158Z,51.78
2022-07-27T04:06:25.712Z,51.34
2022-07-27T04:09:29.147Z,49.31
2022-07-27T04:12:37.455Z,50.27
2022-07-27T04:15:40.914Z,49.80
2022-07-27T04:18:44.351Z,51.67
2022-07-27T04:21:47.637Z,51.62
2022-07-27T04:24:50.896Z,51.22
2022-07-27T04:27:55.595Z,50.37
2022-07-27T04:30:58.928Z,49.99
2022-07-27T04:34:02.302Z,49.14
2022-07-27T04:37:06.127Z,47.42
2022-07-27T04:40:10.642Z,48.43
2022-07-27T04:43:15.333Z,48.04
2022-07-27T04:46:18.661Z,47.41
2022-07-27T04:49:22.160Z,46.80
2022-07-27T04:52:26.642Z,47.11
2022-07-27T04:55:30.145Z,46.46
2022-07-27T04:58:34.921Z,46.72
2022-07-27T05:01:38.625Z,47.23
2022-07-27T05:04:42.052Z,47.29
2022-07-27T05:07:45.400Z,46.88
2022-07-27T05:10:48.837Z,46.61
2022-07-27T05:13:53.599Z,46.12
2022-07-27T05:16:56.984Z,46.99
2022-07-27T05:20:01.389Z,47.15
2022-07-27T05:23:04.956Z,48.50
2022-07-27T05:26:08.251Z,48.70
2022-07-27T05:29:13.243Z,48.09
2022-07-27T05:32:17.290Z,48.62
2022-07-27T05:35:20.820Z,46.39
2022-07-27T05:38:24.238Z,45.59
2022-07-27T05:41:28.368Z,45.00
2022-07-27T05:44:33.223Z,44.04
2022-07-27T05:47:36.673Z,43.03
2022-07-27T05:50:39.989Z,42.49
2022-07-27T05:53:43.481Z,42.74
2022-07-27T05:56:47.236Z,42.25
2022-07-27T05:59:54.655Z,42.09
2022-07-27T06:02:58.048Z,41.57
2022-07-27T06:06:18.854Z,41.43
2022-07-27T06:09:22.200Z,40.73
2022-07-27T06:12:27.658Z,40.31
2022-07-27T06:15:35.560Z,40.47
2022-07-27T06:18:39.084Z,40.56
2022-07-27T06:21:42.419Z,40.41
2022-07-27T06:24:45.727Z,40.14
2022-07-27T06:27:49.350Z,40.63
2022-07-27T06:30:54.722Z,39.61
2022-07-27T06:33:58.341Z,39.54
2022-07-27T06:37:05.463Z,39.19
2022-07-27T06:40:09.667Z,40.10
2022-07-27T06:43:12.994Z,39.36
2022-07-27T06:46:17.736Z,38.50
2022-07-27T06:49:21.253Z,38.88
2022-07-27T06:52:24.723Z,38.22
2022-07-27T06:55:28.128Z,38.03
2022-07-27T06:58:32.696Z,37.58
2022-07-27T07:01:37.431Z,38.38
2022-07-27T07:04:40.766Z,37.91
2022-07-27T07:07:44.133Z,37.76
2022-07-27T07:10:47.524Z,37.34
2022-07-27T07:13:50.899Z,36.24
2022-07-27T07:16:55.750Z,36.32
2022-07-27T07:19:59.177Z,36.21
2022-07-27T07:23:02.836Z,35.70
2022-07-27T07:26:06.293Z,36.36
2022-07-27T07:29:10.003Z,36.56
2022-07-27T07:32:14.858Z,35.07
2022-07-27T07:35:18.322Z,35.55
2022-07-27T07:38:21.584Z,35.60
2022-07-27T07:41:24.978Z,35.66
2022-07-27T07:44:28.417Z,34.86
2022-07-27T07:47:33.183Z,33.94
2022-07-27T07:50:36.471Z,33.97
2022-07-27T07:53:41.633Z,33.38
2022-07-27T07:56:45.336Z,33.39
2022-07-27T07:59:48.706Z,32.80
2022-07-27T08:02:55.699Z,33.33
2022-07-27T08:05:59.102Z,32.41
2022-07-27T08:09:03.524Z,33.07
2022-07-27T08:12:07.889Z,32.11
2022-07-27T08:15:12.497Z,32.31
2022-07-27T08:18:17.271Z,32.08
2022-07-27T08:21:20.670Z,31.76
2022-07-27T08:24:24.072Z,31.65
2022-07-27T08:27:27.394Z,31.44
2022-07-27T08:30:32.367Z,30.65
2022-07-27T08:33:40.920Z,31.16
2022-07-27T08:36:44.448Z,30.67
2022-07-27T08:43:12.180Z,31.25
2022-07-27T08:46:19.341Z,31.76
2022-07-27T08:49:41.370Z,31.34
2022-07-27T08:52:46.329Z,31.16
2022-07-27T08:55:49.969Z,30.61
2022-07-27T08:58:53.373Z,30.39
2022-07-27T09:01:56.773Z,29.98
2022-07-27T09:05:01.898Z,29.63
2022-07-27T09:08:10.936Z,30.80
2022-07-27T09:11:16.298Z,30.51
2022-07-27T09:14:19.672Z,29.82
2022-07-27T09:21:10.418Z,29.38
2022-07-27T09:24:45.407Z,28.44
2022-07-27T09:27:39.759Z,29.10
2022-07-27T09:30:44.197Z,28.60
2022-07-27T09:33:49.364Z,28.78
2022-07-27T09:36:56.000Z,28.66
2022-07-27T09:40:12.765Z,28.17
2022-07-27T09:44:12.457Z,28.04
2022-07-27T09:46:44.011Z,27.82
2022-07-27T09:49:47.416Z,27.34
2022-07-27T09:52:52.238Z,27.73
2022-07-27T09:56:00.820Z,27.07
2022-07-27T09:59:05.474Z,27.45
2022-07-27T10:02:09.033Z,26.59
2022-07-27T10:05:14.080Z,26.66
2022-07-27T10:08:20.418Z,26.98
2022-07-27T10:11:25.055Z,27.15
2022-07-27T10:14:28.590Z,26.75
2022-07-27T10:17:32.219Z,26.93
2022-07-27T10:20:39.587Z,27.77
2022-07-27T10:23:55.528Z,27.24
2022-07-27T10:26:59.528Z,25.22
2022-07-27T10:30:06.714Z,25.06
2022-07-27T10:33:17.468Z,24.11
2022-07-27T10:36:51.961Z,24.66
2022-07-27T10:40:12.123Z,24.72
2022-07-27T10:43:20.492Z,24.26
2022-07-27T10:46:23.858Z,23.89
2022-07-27T10:49:30.198Z,23.71
2022-07-27T10:52:43.978Z,23.59
2022-07-27T10:55:49.771Z,23.35
2022-07-27T10:58:53.340Z,22.93
2022-07-27T11:01:58.601Z,23.81
2022-07-27T11:05:05.950Z,24.53
2022-07-27T11:08:36.593Z,23.23
2022-07-27T11:11:34.716Z,22.93
2022-07-27T11:14:46.696Z,23.15
2022-07-27T11:18:00.481Z,22.59
2022-07-27T11:21:25.919Z,23.58
2022-07-27T11:24:30.252Z,23.43
2022-07-27T11:27:46.492Z,22.75
2022-07-27T11:30:50.455Z,22.23
2022-07-27T11:33:56.458Z,21.98
2022-07-27T11:37:02.221Z,21.24
2022-07-27T11:40:28.177Z,21.73
2022-07-27T11:43:39.135Z,21.20
2022-07-27T11:46:44.533Z,21.71
2022-07-27T11:49:48.626Z,22.19
2022-07-27T11:53:01.659Z,22.42
2022-07-27T11:56:05.738Z,21.94
2022-07-27T11:59:13.974Z,22.81
2022-07-27T12:02:20.482Z,22.37
2022-07-27T12:05:24.173Z,22.53
2022-07-27T12:08:28.388Z,22.84
2022-07-27T12:11:45.454Z,22.54
2022-07-27T12:14:54.300Z,22.48
2022-07-27T12:17:58.239Z,22.89
2022-07-27T12:21:01.670Z,22.55
2022-07-27T12:24:05.662Z,22.98
2022-07-27T12:27:14.172Z,22.78
2022-07-27T12:30:20.192Z,22.53
2022-07-27T12:33:28.733Z,22.87
2022-07-27T12:36:32.735Z,22.68
2022-07-27T12:39:36.198Z,23.54
2022-07-27T12:42:39.567Z,23.23
2022-07-27T12:45:45.009Z,23.73
2022-07-27T12:48:48.491Z,24.04
2022-07-27T12:51:52.168Z,23.87
2022-07-27T12:54:55.761Z,23.58
2022-07-27T12:57:59.146Z,23.96
2022-07-27T13:01:04.019Z,23.76
2022-07-27T13:04:07.564Z,23.85
2022-07-27T13:07:10.872Z,23.53
2022-07-27T13:10:14.572Z,23.59
2022-07-27T13:13:18.020Z,23.82
2022-07-27T13:16:22.808Z,23.42
2022-07-27T13:19:26.228Z,23.97
2022-07-27T13:22:30.131Z,23.53
2022-07-27T13:25:33.759Z,23.88
2022-07-27T13:28:37.699Z,23.91
2022-07-27T13:31:49.006Z,24.84
2022-07-27T13:34:54.618Z,24.35
2022-07-27T13:37:58.007Z,24.34
2022-07-27T13:41:01.453Z,23.95
2022-07-27T13:44:05.376Z,23.63
2022-07-27T13:47:10.324Z,24.01
2022-07-27T13:50:19.358Z,23.63
2022-07-27T13:53:23.220Z,23.46
2022-07-27T13:56:30.078Z,23.47
2022-07-27T13:59:33.420Z,23.64
2022-07-27T14:02:38.246Z,23.13
2022-07-27T14:05:48.803Z,23.94
2022-07-27T14:08:53.201Z,24.26
2022-07-27T14:11:56.886Z,24.34
2022-07-27T14:15:00.300Z,24.74
2022-07-27T14:18:05.531Z,24.92
2022-07-27T14:21:10.345Z,25.04
2022-07-27T14:24:13.626Z,24.43
2022-07-27T14:27:17.096Z,24.14
2022-07-27T14:30:21.201Z,23.99
2022-07-27T14:33:29.852Z,24.43
2022-07-27T14:36:40.172Z,23.90
2022-07-27T14:39:43.505Z,24.02
2022-07-27T14:42:47.066Z,23.60
2022-07-27T14:45:50.700Z,23.59
2022-07-27T14:49:10.680Z,24.14
2022-07-27T14:52:14.560Z,24.02
2022-07-27T14:55:18.074Z,23.83
2022-07-27T14:58:21.406Z,23.92
2022-07-27T15:01:24.979Z,24.28
2022-07-27T15:04:30.299Z,24.26
2022-07-27T15:07:34.319Z,24.07
2022-07-27T15:10:37.648Z,23.64
2022-07-27T15:13:41.014Z,23.96
2022-07-27T15:16:44.660Z,24.61
2022-07-27T15:19:49.391Z,24.36
2022-07-27T15:22:52.816Z,24.30
2022-07-27T15:25:56.135Z,24.45
2022-07-27T15:28:59.426Z,24.19
2022-07-27T15:32:02.793Z,24.50
2022-07-27T15:35:08.294Z,24.77
2022-07-27T15:38:11.709Z,24.81
2022-07-27T15:41:15.570Z,24.50
2022-07-27T15:44:21.057Z,24.11
2022-07-27T15:47:24.386Z,24.69
2022-07-27T15:50:29.244Z,24.31
2022-07-27T15:53:32.561Z,25.18
2022-07-27T15:56:35.865Z,24.85
2022-07-27T15:59:39.189Z,24.85
2022-07-27T16:02:42.615Z,25.21
2022-07-27T16:05:48.979Z,24.69
2022-07-27T16:08:52.369Z,24.98
2022-07-27T16:11:55.639Z,25.36
2022-07-27T16:14:58.950Z,25.22
2022-07-27T16:18:02.419Z,24.69
2022-07-27T16:21:07.406Z,25.03
2022-07-27T16:24:11.212Z,25.05
2022-07-27T16:27:14.558Z,25.32
2022-07-27T16:30:20.577Z,25.43
2022-07-27T16:33:25.672Z,25.31
2022-07-27T16:36:38.211Z,25.33
2022-07-27T16:39:42.774Z,25.56
2022-07-27T16:42:46.157Z,25.64
2022-07-27T16:45:49.479Z,26.25
2022-07-27T16:48:52.826Z,26.47
2022-07-27T16:51:57.568Z,26.10
2022-07-27T16:55:00.853Z,26.26
2022-07-27T16:58:05.347Z,26.35
2022-07-27T17:01:10.002Z,26.28
2022-07-27T17:04:26.007Z,26.78
2022-07-27T17:07:30.740Z,26.67
2022-07-27T17:10:34.059Z,26.85
2022-07-27T17:13:38.666Z,27.43
2022-07-27T17:16:51.741Z,27.39
2022-07-27T17:19:55.571Z,27.61
2022-07-27T17:23:00.335Z,27.80
2022-07-27T17:26:05.491Z,28.11
2022-07-27T17:29:08.821Z,27.65
2022-07-27T17:32:12.406Z,28.31
2022-07-27T17:35:16.796Z,28.36
2022-07-27T17:38:22.322Z,28.65
2022-07-27T17:41:25.748Z,29.43
2022-07-27T17:44:29.126Z,29.29
2022-07-27T17:47:32.493Z,29.70
2022-07-27T17:50:36.304Z,29.71
2022-07-27T17:53:41.040Z,29.76
2022-07-27T17:56:44.423Z,30.01
2022-07-27T17:59:47.795Z,30.10
2022-07-27T18:02:51.123Z,30.58
2022-07-27T18:05:54.476Z,30.21
2022-07-27T18:08:59.317Z,30.99
2022-07-27T18:12:02.694Z,31.40
2022-07-27T18:15:24.123Z,31.29
2022-07-27T18:18:28.786Z,31.41
2022-07-27T18:21:32.259Z,32.02
2022-07-27T18:24:37.026Z,32.44
2022-07-27T18:27:41.028Z,32.66
2022-07-27T18:30:46.071Z,32.42
2022-07-27T18:33:50.959Z,33.40
2022-07-27T18:36:54.958Z,33.49
2022-07-27T18:39:59.735Z,34.06
2022-07-27T18:43:03.287Z,34.93
2022-07-27T18:46:07.211Z,34.67
2022-07-27T18:49:13.942Z,34.80
2022-07-27T18:52:17.829Z,35.00
2022-07-27T18:55:23.091Z,35.09
2022-07-27T18:58:27.796Z,35.75
2022-07-27T19:01:31.245Z,35.08
2022-07-27T19:04:35.002Z,35.29
2022-07-27T19:07:38.793Z,36.23
2022-07-27T19:10:45.814Z,36.45
2022-07-27T19:13:49.173Z,36.92
2022-07-27T19:16:52.867Z,38.02
2022-07-27T19:19:56.313Z,37.78
2022-07-27T19:23:00.883Z,37.59
2022-07-27T19:26:10.437Z,38.09
2022-07-27T19:29:17.222Z,39.10
2022-07-27T19:32:20.734Z,38.15
2022-07-27T19:35:24.037Z,38.34
2022-07-27T19:38:27.601Z,38.10
2022-07-27T19:41:32.393Z,39.13
2022-07-27T19:44:35.739Z,38.92
2022-07-27T19:47:39.093Z,38.12
2022-07-27T19:50:42.998Z,38.19
2022-07-27T19:53:50.242Z,37.78
2022-07-27T19:57:13.268Z,37.30
2022-07-27T20:00:37.960Z,38.39
2022-07-27T20:03:54.586Z,38.32
2022-07-27T20:06:58.440Z,38.14
2022-07-27T20:10:01.809Z,38.22
2022-07-27T20:13:06.937Z,37.87
2022-07-27T20:16:10.379Z,37.89
2022-07-27T20:19:13.993Z,37.59
2022-07-27T20:22:17.609Z,37.44
2022-07-27T20:25:21.080Z,38.06
2022-07-27T20:28:25.811Z,38.17
2022-07-27T20:31:29.599Z,37.74
2022-07-27T20:34:32.948Z,37.69
2022-07-27T20:37:36.568Z,37.57
2022-07-27T20:40:39.983Z,37.64
2022-07-27T20:43:44.753Z,37.64
2022-07-27T20:46:48.154Z,38.21
2022-07-27T20:49:51.554Z,38.14
2022-07-27T20:52:54.993Z,38.52
2022-07-27T20:55:58.250Z,38.44
2022-07-27T20:59:03.280Z,38.50
2022-07-27T21:02:11.318Z,37.53
2022-07-27T21:05:14.679Z,37.47
2022-07-27T21:08:17.945Z,37.14
2022-07-27T21:11:21.463Z,37.23
2022-07-27T21:14:26.207Z,37.20
2022-07-27T21:17:29.999Z,37.21
2022-07-27T21:20:33.331Z,37.48
2022-07-27T21:23:54.264Z,37.91
2022-07-27T21:27:00.903Z,38.72
2022-07-27T21:30:10.308Z,38.89
2022-07-27T21:33:13.781Z,38.74
2022-07-27T21:36:17.348Z,39.26
2022-07-27T21:39:21.718Z,39.51
2022-07-27T21:42:25.029Z,40.13
2022-07-27T21:45:29.737Z,40.88
2022-07-27T21:48:33.482Z,41.57
2022-07-27T21:51:36.997Z,41.54
2022-07-27T21:54:40.572Z,41.76
2022-07-27T21:57:43.968Z,42.40
2022-07-27T22:00:48.887Z,42.35
2022-07-27T22:03:52.446Z,42.76
2022-07-27T22:06:55.927Z,43.80
2022-07-27T22:09:59.229Z,44.19
2022-07-27T22:13:03.781Z,44.09
2022-07-27T22:16:09.286Z,43.32
2022-07-27T22:19:12.794Z,44.05
2022-07-27T22:22:16.085Z,44.54
2022-07-27T22:25:20.468Z,45.62
2022-07-27T22:28:26.032Z,45.34
2022-07-27T22:31:31.206Z,45.20
2022-07-27T22:34:35.055Z,44.64
2022-07-27T22:37:38.713Z,44.99
2022-07-27T22:40:42.192Z,44.80
2022-07-27T22:43:45.527Z,45.12
2022-07-27T22:46:50.584Z,45.55
2022-07-27T22:49:53.870Z,45.59
2022-07-27T22:52:57.810Z,46.05
2022-07-27T22:56:01.250Z,46.97
2022-07-27T22:59:04.585Z,46.81
2022-07-27T23:02:09.776Z,46.21
2022-07-27T23:05:13.303Z,47.30
2022-07-27T23:08:16.630Z,47.45
2022-07-27T23:11:19.969Z,46.43
2022-07-27T23:14:26.035Z,47.28
2022-07-27T23:17:31.502Z,46.80
2022-07-27T23:20:34.980Z,47.27
2022-07-27T23:23:39.947Z,46.46
2022-07-27T23:26:54.443Z,45.24
2022-07-27T23:29:57.852Z,45.60
2022-07-27T23:33:02.607Z,44.78
2022-07-27T23:36:06.891Z,44.73
2022-07-27T23:39:10.187Z,44.13
2022-07-27T23:42:13.792Z,44.77
2022-07-27T23:45:18.573Z,45.28
2022-07-27T23:48:25.030Z,46.29
2022-07-27T23:51:29.472Z,46.24
2022-07-27T23:54:33.053Z,46.11
2022-07-27T23:57:36.461Z,46.28
